Terminal Aerodrome Forecast
Issued by NWS

Home | Current Version | Previous Version | Text Only | Print | Product List | Glossary On
Versions: 1 2 3 4 5 6 7 8 9 10 11 12 13 14 15 16 17 18
304
FTUS41 KCAR 221127
TAFFVE
TAF
KFVE 221127Z 2212/2312 34006KT P6SM -RA SCT003 BKN070
     FM221300 31007KT 4SM -SHRA SCT010 OVC020
     FM221700 30012G22KT P6SM -RA SCT015 OVC020
     FM222100 32015G25KT P6SM SCT025 BKN040
     FM230200 31010KT P6SM BKN200=

USA.gov is the U.S. government's official web portal to all federal, state and local government web resources and services.